sensor_id;sensor_type;location;lat;lon;timestamp;P1;durP1;ratioP1;P2;durP2;ratioP2
10651;SDS011;5374;42.742;23.266;2023-02-01T00:02:17;10.57;;;7.80;;
10651;SDS011;5374;42.742;23.266;2023-02-01T00:05:08;12.37;;;8.17;;
10651;SDS011;5374;42.742;23.266;2023-02-01T00:07:56;10.23;;;7.30;;
10651;SDS011;5374;42.742;23.266;2023-02-01T00:10:43;9.73;;;6.53;;
10651;SDS011;5374;42.742;23.266;2023-02-01T00:13:31;10.13;;;8.23;;
10651;SDS011;5374;42.742;23.266;2023-02-01T00:16:20;16.33;;;10.33;;
10651;SDS011;5374;42.742;23.266;2023-02-01T00:19:10;20.60;;;11.60;;
10651;SDS011;5374;42.742;23.266;2023-02-01T00:22:00;14.17;;;9.00;;
10651;SDS011;5374;42.742;23.266;2023-02-01T00:24:48;9.30;;;7.33;;
10651;SDS011;5374;42.742;23.266;2023-02-01T00:27:35;6.10;;;5.33;;
10651;SDS011;5374;42.742;23.266;2023-02-01T00:30:22;10.20;;;7.27;;
10651;SDS011;5374;42.742;23.266;2023-02-01T00:33:09;11.37;;;8.67;;
10651;SDS011;5374;42.742;23.266;2023-02-01T00:35:57;10.93;;;8.13;;
10651;SDS011;5374;42.742;23.266;2023-02-01T00:38:46;10.03;;;7.83;;
10651;SDS011;5374;42.742;23.266;2023-02-01T00:41:33;9.13;;;7.30;;
10651;SDS011;5374;42.742;23.266;2023-02-01T00:44:20;6.80;;;6.10;;
10651;SDS011;5374;42.742;23.266;2023-02-01T00:47:08;7.43;;;5.63;;
10651;SDS011;5374;42.742;23.266;2023-02-01T00:49:56;7.17;;;5.20;;
10651;SDS011;5374;42.742;23.266;2023-02-01T00:52:44;8.53;;;5.83;;
10651;SDS011;5374;42.742;23.266;2023-02-01T00:55:32;5.83;;;4.40;;
10651;SDS011;5374;42.742;23.266;2023-02-01T00:58:21;4.93;;;4.43;;
10651;SDS011;5374;42.742;23.266;2023-02-01T01:01:10;5.57;;;4.63;;
10651;SDS011;5374;42.742;23.266;2023-02-01T01:03:59;8.10;;;5.03;;
10651;SDS011;5374;42.742;23.266;2023-02-01T01:06:48;8.27;;;4.30;;
10651;SDS011;5374;42.742;23.266;2023-02-01T01:09:36;7.03;;;4.37;;
10651;SDS011;5374;42.742;23.266;2023-02-01T01:12:24;4.73;;;4.10;;
10651;SDS011;5374;42.742;23.266;2023-02-01T01:15:11;5.10;;;4.03;;
10651;SDS011;5374;42.742;23.266;2023-02-01T01:17:58;4.47;;;4.07;;
10651;SDS011;5374;42.742;23.266;2023-02-01T01:20:47;6.03;;;4.00;;
10651;SDS011;5374;42.742;23.266;2023-02-01T01:23:34;6.27;;;4.47;;
10651;SDS011;5374;42.742;23.266;2023-02-01T01:26:22;5.37;;;3.90;;
10651;SDS011;5374;42.742;23.266;2023-02-01T01:29:12;8.03;;;3.77;;
10651;SDS011;5374;42.742;23.266;2023-02-01T01:31:59;5.17;;;4.07;;
10651;SDS011;5374;42.742;23.266;2023-02-01T01:34:46;5.47;;;3.63;;
10651;SDS011;5374;42.742;23.266;2023-02-01T01:37:33;7.40;;;4.90;;
10651;SDS011;5374;42.742;23.266;2023-02-01T01:40:22;7.10;;;3.50;;
10651;SDS011;5374;42.742;23.266;2023-02-01T01:43:13;4.20;;;3.63;;
10651;SDS011;5374;42.742;23.266;2023-02-01T01:46:02;4.50;;;3.50;;
10651;SDS011;5374;42.742;23.266;2023-02-01T01:48:50;6.57;;;4.30;;
10651;SDS011;5374;42.742;23.266;2023-02-01T01:51:43;8.10;;;5.00;;
10651;SDS011;5374;42.742;23.266;2023-02-01T01:54:33;7.33;;;4.60;;
10651;SDS011;5374;42.742;23.266;2023-02-01T01:57:24;8.20;;;4.83;;
10651;SDS011;5374;42.742;23.266;2023-02-01T02:00:17;4.57;;;4.00;;
10651;SDS011;5374;42.742;23.266;2023-02-01T02:03:08;5.63;;;4.40;;
10651;SDS011;5374;42.742;23.266;2023-02-01T02:06:02;4.77;;;3.73;;
10651;SDS011;5374;42.742;23.266;2023-02-01T02:08:53;5.23;;;3.50;;
10651;SDS011;5374;42.742;23.266;2023-02-01T02:11:40;5.63;;;4.37;;
10651;SDS011;5374;42.742;23.266;2023-02-01T02:14:27;5.57;;;3.87;;
10651;SDS011;5374;42.742;23.266;2023-02-01T02:17:24;4.97;;;3.80;;
10651;SDS011;5374;42.742;23.266;2023-02-01T02:23:49;5.37;;;4.37;;
10651;SDS011;5374;42.742;23.266;2023-02-01T02:26:58;5.07;;;4.13;;
10651;SDS011;5374;42.742;23.266;2023-02-01T02:30:02;61.23;;;23.20;;
10651;SDS011;5374;42.742;23.266;2023-02-01T02:33:20;8.87;;;5.03;;
10651;SDS011;5374;42.742;23.266;2023-02-01T02:36:31;5.77;;;4.20;;
10651;SDS011;5374;42.742;23.266;2023-02-01T02:39:32;7.20;;;4.40;;
10651;SDS011;5374;42.742;23.266;2023-02-01T02:42:27;6.83;;;4.63;;
10651;SDS011;5374;42.742;23.266;2023-02-01T02:45:37;8.87;;;4.70;;
10651;SDS011;5374;42.742;23.266;2023-02-01T02:48:47;7.17;;;4.77;;
10651;SDS011;5374;42.742;23.266;2023-02-01T02:51:41;13.43;;;6.97;;
10651;SDS011;5374;42.742;23.266;2023-02-01T02:54:49;4.73;;;3.73;;
10651;SDS011;5374;42.742;23.266;2023-02-01T02:57:40;7.00;;;3.70;;
10651;SDS011;5374;42.742;23.266;2023-02-01T03:00:47;6.20;;;3.77;;
10651;SDS011;5374;42.742;23.266;2023-02-01T03:03:54;10.03;;;5.90;;
10651;SDS011;5374;42.742;23.266;2023-02-01T03:06:53;6.80;;;4.70;;
10651;SDS011;5374;42.742;23.266;2023-02-01T03:09:41;6.13;;;4.30;;
10651;SDS011;5374;42.742;23.266;2023-02-01T03:12:33;16.07;;;7.00;;
10651;SDS011;5374;42.742;23.266;2023-02-01T03:15:49;11.33;;;5.87;;
10651;SDS011;5374;42.742;23.266;2023-02-01T03:18:45;11.33;;;5.67;;
10651;SDS011;5374;42.742;23.266;2023-02-01T03:21:40;6.57;;;4.47;;
10651;SDS011;5374;42.742;23.266;2023-02-01T03:24:30;14.50;;;6.10;;
10651;SDS011;5374;42.742;23.266;2023-02-01T03:27:21;5.87;;;4.00;;
10651;SDS011;5374;42.742;23.266;2023-02-01T03:30:14;6.93;;;4.63;;
10651;SDS011;5374;42.742;23.266;2023-02-01T03:33:06;6.83;;;4.13;;
10651;SDS011;5374;42.742;23.266;2023-02-01T03:36:02;4.27;;;3.40;;
10651;SDS011;5374;42.742;23.266;2023-02-01T03:39:00;7.27;;;3.93;;
10651;SDS011;5374;42.742;23.266;2023-02-01T03:41:53;4.67;;;3.73;;
10651;SDS011;5374;42.742;23.266;2023-02-01T03:44:45;4.47;;;3.43;;
10651;SDS011;5374;42.742;23.266;2023-02-01T03:47:37;10.47;;;5.67;;
10651;SDS011;5374;42.742;23.266;2023-02-01T03:50:27;6.03;;;3.53;;
10651;SDS011;5374;42.742;23.266;2023-02-01T03:53:19;4.90;;;2.90;;
10651;SDS011;5374;42.742;23.266;2023-02-01T03:56:10;4.20;;;3.40;;
10651;SDS011;5374;42.742;23.266;2023-02-01T03:58:58;3.63;;;2.90;;
10651;SDS011;5374;42.742;23.266;2023-02-01T04:01:45;6.40;;;3.37;;
10651;SDS011;5374;42.742;23.266;2023-02-01T04:04:32;5.40;;;3.50;;
10651;SDS011;5374;42.742;23.266;2023-02-01T04:07:20;21.57;;;12.17;;
10651;SDS011;5374;42.742;23.266;2023-02-01T04:10:09;5.63;;;4.20;;
10651;SDS011;5374;42.742;23.266;2023-02-01T04:12:59;4.93;;;3.60;;
10651;SDS011;5374;42.742;23.266;2023-02-01T04:15:46;5.00;;;4.20;;
10651;SDS011;5374;42.742;23.266;2023-02-01T04:18:35;5.47;;;3.50;;
10651;SDS011;5374;42.742;23.266;2023-02-01T04:21:22;4.43;;;3.50;;
10651;SDS011;5374;42.742;23.266;2023-02-01T04:24:09;4.57;;;3.20;;
10651;SDS011;5374;42.742;23.266;2023-02-01T04:26:57;3.73;;;3.23;;
10651;SDS011;5374;42.742;23.266;2023-02-01T04:29:45;15.93;;;8.00;;
10651;SDS011;5374;42.742;23.266;2023-02-01T04:32:32;12.10;;;6.60;;
10651;SDS011;5374;42.742;23.266;2023-02-01T04:35:19;8.20;;;4.30;;
10651;SDS011;5374;42.742;23.266;2023-02-01T04:38:10;6.30;;;3.40;;
10651;SDS011;5374;42.742;23.266;2023-02-01T04:40:57;4.70;;;3.63;;
10651;SDS011;5374;42.742;23.266;2023-02-01T04:43:44;4.53;;;3.37;;
10651;SDS011;5374;42.742;23.266;2023-02-01T04:46:33;4.97;;;3.13;;
10651;SDS011;5374;42.742;23.266;2023-02-01T04:49:20;5.40;;;3.40;;
10651;SDS011;5374;42.742;23.266;2023-02-01T04:52:08;5.00;;;3.30;;
10651;SDS011;5374;42.742;23.266;2023-02-01T04:54:56;6.37;;;4.10;;
10651;SDS011;5374;42.742;23.266;2023-02-01T04:57:47;8.33;;;4.60;;
10651;SDS011;5374;42.742;23.266;2023-02-01T05:00:34;6.23;;;4.47;;
10651;SDS011;5374;42.742;23.266;2023-02-01T05:03:23;45.67;;;19.77;;
10651;SDS011;5374;42.742;23.266;2023-02-01T05:06:10;21.37;;;10.47;;
10651;SDS011;5374;42.742;23.266;2023-02-01T05:08:58;7.80;;;5.50;;
10651;SDS011;5374;42.742;23.266;2023-02-01T05:11:45;9.47;;;5.80;;
10651;SDS011;5374;42.742;23.266;2023-02-01T05:14:49;7.30;;;5.03;;
10651;SDS011;5374;42.742;23.266;2023-02-01T05:17:36;6.43;;;4.97;;
10651;SDS011;5374;42.742;23.266;2023-02-01T05:20:26;6.37;;;4.47;;
10651;SDS011;5374;42.742;23.266;2023-02-01T05:23:14;7.30;;;4.30;;
10651;SDS011;5374;42.742;23.266;2023-02-01T05:26:01;8.77;;;5.90;;
10651;SDS011;5374;42.742;23.266;2023-02-01T05:28:48;11.10;;;7.63;;
10651;SDS011;5374;42.742;23.266;2023-02-01T05:31:35;7.97;;;5.60;;
10651;SDS011;5374;42.742;23.266;2023-02-01T05:34:23;7.97;;;4.53;;
10651;SDS011;5374;42.742;23.266;2023-02-01T05:37:11;8.60;;;5.00;;
10651;SDS011;5374;42.742;23.266;2023-02-01T05:39:58;10.93;;;6.70;;
10651;SDS011;5374;42.742;23.266;2023-02-01T05:42:46;8.10;;;5.80;;
10651;SDS011;5374;42.742;23.266;2023-02-01T05:45:33;9.13;;;6.00;;
10651;SDS011;5374;42.742;23.266;2023-02-01T05:48:20;6.13;;;5.40;;
10651;SDS011;5374;42.742;23.266;2023-02-01T05:51:07;7.43;;;5.90;;
10651;SDS011;5374;42.742;23.266;2023-02-01T05:53:56;9.33;;;5.73;;
10651;SDS011;5374;42.742;23.266;2023-02-01T05:56:43;8.13;;;5.63;;
10651;SDS011;5374;42.742;23.266;2023-02-01T05:59:30;10.30;;;6.90;;
10651;SDS011;5374;42.742;23.266;2023-02-01T06:02:17;8.90;;;5.90;;
10651;SDS011;5374;42.742;23.266;2023-02-01T06:05:09;5.00;;;4.30;;
10651;SDS011;5374;42.742;23.266;2023-02-01T06:07:56;7.97;;;4.70;;
10651;SDS011;5374;42.742;23.266;2023-02-01T06:10:45;7.90;;;5.20;;
10651;SDS011;5374;42.742;23.266;2023-02-01T06:13:32;8.33;;;6.13;;
10651;SDS011;5374;42.742;23.266;2023-02-01T06:16:19;7.60;;;5.40;;
10651;SDS011;5374;42.742;23.266;2023-02-01T06:19:07;7.53;;;6.00;;
10651;SDS011;5374;42.742;23.266;2023-02-01T06:21:54;14.33;;;8.17;;
10651;SDS011;5374;42.742;23.266;2023-02-01T06:24:41;8.23;;;5.40;;
10651;SDS011;5374;42.742;23.266;2023-02-01T06:27:30;7.67;;;4.77;;
10651;SDS011;5374;42.742;23.266;2023-02-01T06:30:18;8.00;;;5.33;;
10651;SDS011;5374;42.742;23.266;2023-02-01T06:33:05;7.87;;;5.30;;
10651;SDS011;5374;42.742;23.266;2023-02-01T06:35:56;11.00;;;6.57;;
10651;SDS011;5374;42.742;23.266;2023-02-01T06:38:44;6.90;;;5.70;;
10651;SDS011;5374;42.742;23.266;2023-02-01T06:41:31;7.57;;;4.50;;
10651;SDS011;5374;42.742;23.266;2023-02-01T06:44:21;6.23;;;4.40;;
10651;SDS011;5374;42.742;23.266;2023-02-01T06:47:08;6.37;;;4.70;;
10651;SDS011;5374;42.742;23.266;2023-02-01T06:49:55;8.90;;;4.73;;
10651;SDS011;5374;42.742;23.266;2023-02-01T06:52:43;6.37;;;4.43;;
10651;SDS011;5374;42.742;23.266;2023-02-01T06:55:30;7.07;;;4.20;;
10651;SDS011;5374;42.742;23.266;2023-02-01T06:58:18;10.10;;;5.40;;
10651;SDS011;5374;42.742;23.266;2023-02-01T07:01:08;7.90;;;4.67;;
10651;SDS011;5374;42.742;23.266;2023-02-01T07:03:55;6.73;;;4.10;;
10651;SDS011;5374;42.742;23.266;2023-02-01T07:06:43;9.50;;;4.10;;
10651;SDS011;5374;42.742;23.266;2023-02-01T07:09:30;6.57;;;4.13;;
10651;SDS011;5374;42.742;23.266;2023-02-01T07:12:18;10.90;;;4.63;;
10651;SDS011;5374;42.742;23.266;2023-02-01T07:15:06;11.00;;;3.80;;
10651;SDS011;5374;42.742;23.266;2023-02-01T07:17:55;8.00;;;3.67;;
10651;SDS011;5374;42.742;23.266;2023-02-01T07:20:43;12.90;;;5.50;;
10651;SDS011;5374;42.742;23.266;2023-02-01T07:23:30;6.97;;;4.33;;
10651;SDS011;5374;42.742;23.266;2023-02-01T07:26:17;5.30;;;3.83;;
10651;SDS011;5374;42.742;23.266;2023-02-01T07:29:05;6.90;;;4.13;;
10651;SDS011;5374;42.742;23.266;2023-02-01T07:31:52;5.53;;;3.93;;
10651;SDS011;5374;42.742;23.266;2023-02-01T07:34:40;6.07;;;3.77;;
10651;SDS011;5374;42.742;23.266;2023-02-01T07:37:28;6.07;;;3.83;;
10651;SDS011;5374;42.742;23.266;2023-02-01T07:40:15;9.67;;;4.20;;
10651;SDS011;5374;42.742;23.266;2023-02-01T07:43:03;8.23;;;4.03;;
10651;SDS011;5374;42.742;23.266;2023-02-01T07:45:53;5.77;;;3.40;;
10651;SDS011;5374;42.742;23.266;2023-02-01T07:48:41;6.83;;;3.90;;
10651;SDS011;5374;42.742;23.266;2023-02-01T07:51:29;7.73;;;3.60;;
10651;SDS011;5374;42.742;23.266;2023-02-01T07:54:17;10.17;;;3.97;;
10651;SDS011;5374;42.742;23.266;2023-02-01T07:57:04;6.47;;;3.97;;
10651;SDS011;5374;42.742;23.266;2023-02-01T07:59:51;6.77;;;4.13;;
10651;SDS011;5374;42.742;23.266;2023-02-01T08:03:02;7.50;;;4.50;;
10651;SDS011;5374;42.742;23.266;2023-02-01T08:05:53;9.13;;;4.40;;
10651;SDS011;5374;42.742;23.266;2023-02-01T08:08:42;4.63;;;3.53;;
10651;SDS011;5374;42.742;23.266;2023-02-01T08:11:30;7.37;;;4.00;;
10651;SDS011;5374;42.742;23.266;2023-02-01T08:14:18;6.83;;;3.93;;
10651;SDS011;5374;42.742;23.266;2023-02-01T08:17:05;10.20;;;6.20;;
10651;SDS011;5374;42.742;23.266;2023-02-01T08:19:52;12.07;;;7.37;;
10651;SDS011;5374;42.742;23.266;2023-02-01T08:22:39;6.40;;;4.17;;
10651;SDS011;5374;42.742;23.266;2023-02-01T08:25:28;5.07;;;3.23;;
10651;SDS011;5374;42.742;23.266;2023-02-01T08:28:15;7.07;;;3.50;;
10651;SDS011;5374;42.742;23.266;2023-02-01T08:31:06;8.30;;;3.77;;
10651;SDS011;5374;42.742;23.266;2023-02-01T08:33:55;7.83;;;3.63;;
10651;SDS011;5374;42.742;23.266;2023-02-01T08:36:44;5.27;;;3.27;;
10651;SDS011;5374;42.742;23.266;2023-02-01T08:39:32;5.20;;;3.47;;
10651;SDS011;5374;42.742;23.266;2023-02-01T08:42:20;5.47;;;2.63;;
10651;SDS011;5374;42.742;23.266;2023-02-01T08:45:25;7.13;;;3.93;;
10651;SDS011;5374;42.742;23.266;2023-02-01T08:48:14;7.47;;;3.70;;
10651;SDS011;5374;42.742;23.266;2023-02-01T08:51:02;6.27;;;3.13;;
10651;SDS011;5374;42.742;23.266;2023-02-01T08:53:50;5.70;;;3.60;;
10651;SDS011;5374;42.742;23.266;2023-02-01T08:56:37;10.20;;;4.57;;
10651;SDS011;5374;42.742;23.266;2023-02-01T08:59:26;8.43;;;3.83;;
10651;SDS011;5374;42.742;23.266;2023-02-01T09:02:14;8.87;;;3.70;;
10651;SDS011;5374;42.742;23.266;2023-02-01T09:05:02;5.33;;;3.10;;
10651;SDS011;5374;42.742;23.266;2023-02-01T09:07:50;7.23;;;3.13;;
10651;SDS011;5374;42.742;23.266;2023-02-01T09:10:37;6.23;;;3.53;;
10651;SDS011;5374;42.742;23.266;2023-02-01T09:13:24;6.33;;;3.27;;
10651;SDS011;5374;42.742;23.266;2023-02-01T09:16:13;6.63;;;2.93;;
10651;SDS011;5374;42.742;23.266;2023-02-01T09:19:00;6.03;;;2.77;;
10651;SDS011;5374;42.742;23.266;2023-02-01T09:21:47;6.07;;;2.57;;
10651;SDS011;5374;42.742;23.266;2023-02-01T09:24:35;4.27;;;3.00;;
10651;SDS011;5374;42.742;23.266;2023-02-01T09:27:22;6.17;;;2.97;;
10651;SDS011;5374;42.742;23.266;2023-02-01T09:30:10;8.77;;;3.37;;
10651;SDS011;5374;42.742;23.266;2023-02-01T09:32:59;6.40;;;3.13;;
10651;SDS011;5374;42.742;23.266;2023-02-01T09:35:46;14.57;;;7.67;;
10651;SDS011;5374;42.742;23.266;2023-02-01T09:38:33;7.33;;;2.93;;
10651;SDS011;5374;42.742;23.266;2023-02-01T09:41:26;4.93;;;2.73;;
10651;SDS011;5374;42.742;23.266;2023-02-01T09:44:28;5.73;;;3.23;;
10651;SDS011;5374;42.742;23.266;2023-02-01T09:47:31;5.30;;;2.67;;
10651;SDS011;5374;42.742;23.266;2023-02-01T09:50:21;5.60;;;3.50;;
10651;SDS011;5374;42.742;23.266;2023-02-01T09:53:17;5.93;;;2.90;;
10651;SDS011;5374;42.742;23.266;2023-02-01T09:56:12;8.83;;;2.90;;
10651;SDS011;5374;42.742;23.266;2023-02-01T09:59:09;5.77;;;3.20;;
10651;SDS011;5374;42.742;23.266;2023-02-01T10:02:08;3.83;;;2.20;;
10651;SDS011;5374;42.742;23.266;2023-02-01T10:04:59;4.57;;;2.60;;
10651;SDS011;5374;42.742;23.266;2023-02-01T10:07:54;5.60;;;2.50;;
10651;SDS011;5374;42.742;23.266;2023-02-01T10:10:48;6.03;;;4.40;;
10651;SDS011;5374;42.742;23.266;2023-02-01T10:13:43;5.73;;;3.10;;
10651;SDS011;5374;42.742;23.266;2023-02-01T10:16:43;6.40;;;3.30;;
10651;SDS011;5374;42.742;23.266;2023-02-01T10:19:39;6.10;;;3.40;;
10651;SDS011;5374;42.742;23.266;2023-02-01T10:22:39;5.77;;;3.03;;
10651;SDS011;5374;42.742;23.266;2023-02-01T10:25:31;7.30;;;3.60;;
10651;SDS011;5374;42.742;23.266;2023-02-01T10:28:24;4.80;;;3.00;;
10651;SDS011;5374;42.742;23.266;2023-02-01T10:31:11;7.20;;;3.80;;
10651;SDS011;5374;42.742;23.266;2023-02-01T10:33:59;7.00;;;3.27;;
10651;SDS011;5374;42.742;23.266;2023-02-01T10:36:55;3.30;;;3.00;;
10651;SDS011;5374;42.742;23.266;2023-02-01T10:39:46;8.47;;;3.30;;
10651;SDS011;5374;42.742;23.266;2023-02-01T10:42:36;4.30;;;2.90;;
10651;SDS011;5374;42.742;23.266;2023-02-01T10:45:24;4.43;;;2.77;;
10651;SDS011;5374;42.742;23.266;2023-02-01T10:48:13;4.13;;;2.37;;
10651;SDS011;5374;42.742;23.266;2023-02-01T10:51:02;4.27;;;2.70;;
10651;SDS011;5374;42.742;23.266;2023-02-01T10:53:55;3.60;;;2.13;;
10651;SDS011;5374;42.742;23.266;2023-02-01T10:56:47;3.10;;;2.00;;
10651;SDS011;5374;42.742;23.266;2023-02-01T10:59:40;4.03;;;2.50;;
10651;SDS011;5374;42.742;23.266;2023-02-01T11:02:29;11.30;;;4.90;;
10651;SDS011;5374;42.742;23.266;2023-02-01T11:05:18;4.33;;;2.00;;
10651;SDS011;5374;42.742;23.266;2023-02-01T11:08:12;3.87;;;2.13;;
10651;SDS011;5374;42.742;23.266;2023-02-01T11:11:03;4.43;;;1.73;;
10651;SDS011;5374;42.742;23.266;2023-02-01T11:13:53;5.07;;;1.80;;
10651;SDS011;5374;42.742;23.266;2023-02-01T11:16:46;6.53;;;2.10;;
10651;SDS011;5374;42.742;23.266;2023-02-01T11:19:35;4.37;;;2.70;;
10651;SDS011;5374;42.742;23.266;2023-02-01T11:22:24;5.43;;;3.27;;
10651;SDS011;5374;42.742;23.266;2023-02-01T11:25:14;4.53;;;2.63;;
10651;SDS011;5374;42.742;23.266;2023-02-01T11:28:04;5.67;;;1.93;;
10651;SDS011;5374;42.742;23.266;2023-02-01T11:30:53;5.43;;;1.77;;
10651;SDS011;5374;42.742;23.266;2023-02-01T11:33:45;3.50;;;1.90;;
10651;SDS011;5374;42.742;23.266;2023-02-01T11:36:36;4.63;;;2.73;;
10651;SDS011;5374;42.742;23.266;2023-02-01T11:39:26;5.20;;;1.80;;
10651;SDS011;5374;42.742;23.266;2023-02-01T11:42:16;3.97;;;1.60;;
10651;SDS011;5374;42.742;23.266;2023-02-01T11:45:15;6.30;;;1.90;;
10651;SDS011;5374;42.742;23.266;2023-02-01T11:48:07;3.40;;;2.00;;
10651;SDS011;5374;42.742;23.266;2023-02-01T11:51:01;4.53;;;2.00;;
10651;SDS011;5374;42.742;23.266;2023-02-01T11:54:10;5.03;;;2.30;;
10651;SDS011;5374;42.742;23.266;2023-02-01T11:57:12;3.37;;;1.70;;
10651;SDS011;5374;42.742;23.266;2023-02-01T12:00:16;3.27;;;1.90;;
10651;SDS011;5374;42.742;23.266;2023-02-01T12:06:53;5.33;;;2.57;;
10651;SDS011;5374;42.742;23.266;2023-02-01T12:09:55;5.10;;;3.20;;
10651;SDS011;5374;42.742;23.266;2023-02-01T12:12:52;8.90;;;4.57;;
10651;SDS011;5374;42.742;23.266;2023-02-01T12:15:52;16.67;;;8.37;;
10651;SDS011;5374;42.742;23.266;2023-02-01T12:18:58;7.30;;;3.57;;
10651;SDS011;5374;42.742;23.266;2023-02-01T12:22:12;5.90;;;3.37;;
10651;SDS011;5374;42.742;23.266;2023-02-01T12:25:16;7.70;;;4.20;;
10651;SDS011;5374;42.742;23.266;2023-02-01T12:28:29;5.93;;;3.50;;
10651;SDS011;5374;42.742;23.266;2023-02-01T12:31:38;3.87;;;2.80;;
10651;SDS011;5374;42.742;23.266;2023-02-01T12:34:45;2.37;;;2.17;;
10651;SDS011;5374;42.742;23.266;2023-02-01T12:37:46;17.40;;;7.77;;
10651;SDS011;5374;42.742;23.266;2023-02-01T12:40:49;6.40;;;2.23;;
10651;SDS011;5374;42.742;23.266;2023-02-01T12:43:49;18.73;;;14.23;;
10651;SDS011;5374;42.742;23.266;2023-02-01T12:46:41;5.70;;;2.50;;
10651;SDS011;5374;42.742;23.266;2023-02-01T12:49:36;3.83;;;2.00;;
10651;SDS011;5374;42.742;23.266;2023-02-01T12:52:32;6.60;;;3.43;;
10651;SDS011;5374;42.742;23.266;2023-02-01T12:55:27;7.47;;;2.90;;
10651;SDS011;5374;42.742;23.266;2023-02-01T12:58:23;7.07;;;2.90;;
10651;SDS011;5374;42.742;23.266;2023-02-01T13:01:12;8.37;;;4.97;;
10651;SDS011;5374;42.742;23.266;2023-02-01T13:04:05;3.07;;;2.20;;
10651;SDS011;5374;42.742;23.266;2023-02-01T13:07:01;4.93;;;2.00;;
10651;SDS011;5374;42.742;23.266;2023-02-01T13:09:55;5.03;;;2.33;;
10651;SDS011;5374;42.742;23.266;2023-02-01T13:12:51;6.60;;;2.40;;
10651;SDS011;5374;42.742;23.266;2023-02-01T13:15:46;3.67;;;2.47;;
10651;SDS011;5374;42.742;23.266;2023-02-01T13:18:37;2.90;;;1.90;;
10651;SDS011;5374;42.742;23.266;2023-02-01T13:21:27;7.93;;;4.73;;
10651;SDS011;5374;42.742;23.266;2023-02-01T13:24:22;11.33;;;6.33;;
10651;SDS011;5374;42.742;23.266;2023-02-01T13:27:17;6.13;;;2.10;;
10651;SDS011;5374;42.742;23.266;2023-02-01T13:30:07;5.60;;;2.30;;
10651;SDS011;5374;42.742;23.266;2023-02-01T13:39:43;3.50;;;2.37;;
10651;SDS011;5374;42.742;23.266;2023-02-01T13:42:41;5.60;;;3.03;;
10651;SDS011;5374;42.742;23.266;2023-02-01T13:45:36;3.57;;;2.37;;
10651;SDS011;5374;42.742;23.266;2023-02-01T13:48:29;4.50;;;2.47;;
10651;SDS011;5374;42.742;23.266;2023-02-01T13:51:34;4.00;;;2.40;;
10651;SDS011;5374;42.742;23.266;2023-02-01T13:54:28;3.17;;;2.37;;
10651;SDS011;5374;42.742;23.266;2023-02-01T13:57:32;3.87;;;2.07;;
10651;SDS011;5374;42.742;23.266;2023-02-01T14:00:23;6.33;;;3.57;;
10651;SDS011;5374;42.742;23.266;2023-02-01T14:03:18;4.70;;;3.20;;
10651;SDS011;5374;42.742;23.266;2023-02-01T14:06:18;4.67;;;2.97;;
10651;SDS011;5374;42.742;23.266;2023-02-01T14:09:33;8.70;;;4.50;;
10651;SDS011;5374;42.742;23.266;2023-02-01T14:12:42;3.90;;;2.70;;
10651;SDS011;5374;42.742;23.266;2023-02-01T14:15:33;3.77;;;2.57;;
10651;SDS011;5374;42.742;23.266;2023-02-01T14:21:47;3.57;;;2.50;;
10651;SDS011;5374;42.742;23.266;2023-02-01T14:24:39;3.90;;;2.60;;
10651;SDS011;5374;42.742;23.266;2023-02-01T14:27:28;3.50;;;2.20;;
10651;SDS011;5374;42.742;23.266;2023-02-01T14:30:21;5.70;;;2.20;;
10651;SDS011;5374;42.742;23.266;2023-02-01T14:33:17;5.03;;;2.50;;
10651;SDS011;5374;42.742;23.266;2023-02-01T14:36:12;5.73;;;3.00;;
10651;SDS011;5374;42.742;23.266;2023-02-01T14:39:01;4.33;;;3.03;;
10651;SDS011;5374;42.742;23.266;2023-02-01T14:41:51;6.43;;;2.83;;
10651;SDS011;5374;42.742;23.266;2023-02-01T14:44:42;5.47;;;3.13;;
10651;SDS011;5374;42.742;23.266;2023-02-01T14:47:30;2.60;;;2.30;;
10651;SDS011;5374;42.742;23.266;2023-02-01T14:50:25;6.80;;;2.33;;
10651;SDS011;5374;42.742;23.266;2023-02-01T14:53:21;6.70;;;4.03;;
10651;SDS011;5374;42.742;23.266;2023-02-01T14:56:14;3.47;;;2.60;;
10651;SDS011;5374;42.742;23.266;2023-02-01T14:59:06;4.07;;;2.43;;
10651;SDS011;5374;42.742;23.266;2023-02-01T15:01:58;3.33;;;2.50;;
10651;SDS011;5374;42.742;23.266;2023-02-01T15:04:47;5.07;;;2.87;;
10651;SDS011;5374;42.742;23.266;2023-02-01T15:07:41;3.70;;;2.60;;
10651;SDS011;5374;42.742;23.266;2023-02-01T15:10:30;5.60;;;3.23;;
10651;SDS011;5374;42.742;23.266;2023-02-01T15:13:20;5.90;;;3.00;;
10651;SDS011;5374;42.742;23.266;2023-02-01T15:16:12;7.00;;;3.27;;
10651;SDS011;5374;42.742;23.266;2023-02-01T15:19:07;6.47;;;2.93;;
10651;SDS011;5374;42.742;23.266;2023-02-01T15:21:59;3.30;;;2.30;;
10651;SDS011;5374;42.742;23.266;2023-02-01T15:24:53;5.63;;;3.30;;
10651;SDS011;5374;42.742;23.266;2023-02-01T15:27:49;3.77;;;2.50;;
10651;SDS011;5374;42.742;23.266;2023-02-01T15:30:37;5.10;;;2.60;;
10651;SDS011;5374;42.742;23.266;2023-02-01T15:33:29;4.23;;;2.47;;
10651;SDS011;5374;42.742;23.266;2023-02-01T15:36:20;2.97;;;2.40;;
10651;SDS011;5374;42.742;23.266;2023-02-01T15:39:17;11.37;;;5.73;;
10651;SDS011;5374;42.742;23.266;2023-02-01T15:42:11;16.57;;;8.57;;
10651;SDS011;5374;42.742;23.266;2023-02-01T15:45:02;23.00;;;11.37;;
10651;SDS011;5374;42.742;23.266;2023-02-01T15:47:52;16.83;;;8.47;;
10651;SDS011;5374;42.742;23.266;2023-02-01T15:50:41;15.67;;;6.10;;
10651;SDS011;5374;42.742;23.266;2023-02-01T15:53:28;9.10;;;6.03;;
10651;SDS011;5374;42.742;23.266;2023-02-01T15:56:16;9.80;;;6.00;;
10651;SDS011;5374;42.742;23.266;2023-02-01T15:59:12;19.33;;;11.60;;
10651;SDS011;5374;42.742;23.266;2023-02-01T16:02:04;19.13;;;11.07;;
10651;SDS011;5374;42.742;23.266;2023-02-01T16:05:27;19.87;;;10.53;;
10651;SDS011;5374;42.742;23.266;2023-02-01T16:08:20;16.87;;;10.67;;
10651;SDS011;5374;42.742;23.266;2023-02-01T16:11:21;15.63;;;9.70;;
10651;SDS011;5374;42.742;23.266;2023-02-01T16:14:11;33.13;;;19.40;;
10651;SDS011;5374;42.742;23.266;2023-02-01T16:17:04;55.50;;;27.47;;
10651;SDS011;5374;42.742;23.266;2023-02-01T16:19:55;48.43;;;25.13;;
10651;SDS011;5374;42.742;23.266;2023-02-01T16:22:42;27.53;;;13.13;;
10651;SDS011;5374;42.742;23.266;2023-02-01T16:25:29;26.30;;;13.73;;
10651;SDS011;5374;42.742;23.266;2023-02-01T16:28:17;12.37;;;8.10;;
10651;SDS011;5374;42.742;23.266;2023-02-01T16:31:04;8.87;;;5.57;;
10651;SDS011;5374;42.742;23.266;2023-02-01T16:33:55;9.33;;;4.83;;
10651;SDS011;5374;42.742;23.266;2023-02-01T16:36:42;9.23;;;5.67;;
10651;SDS011;5374;42.742;23.266;2023-02-01T16:39:31;10.13;;;5.50;;
10651;SDS011;5374;42.742;23.266;2023-02-01T16:42:18;8.00;;;5.43;;
10651;SDS011;5374;42.742;23.266;2023-02-01T16:45:06;10.10;;;5.97;;
10651;SDS011;5374;42.742;23.266;2023-02-01T16:47:54;13.07;;;7.10;;
10651;SDS011;5374;42.742;23.266;2023-02-01T16:50:46;11.93;;;7.67;;
10651;SDS011;5374;42.742;23.266;2023-02-01T16:53:36;15.23;;;8.60;;
10651;SDS011;5374;42.742;23.266;2023-02-01T16:56:24;20.73;;;11.57;;
10651;SDS011;5374;42.742;23.266;2023-02-01T16:59:16;19.67;;;12.93;;
10651;SDS011;5374;42.742;23.266;2023-02-01T17:02:03;22.97;;;12.40;;
10651;SDS011;5374;42.742;23.266;2023-02-01T17:04:50;15.80;;;10.47;;
10651;SDS011;5374;42.742;23.266;2023-02-01T17:07:38;23.50;;;15.30;;
10651;SDS011;5374;42.742;23.266;2023-02-01T17:10:27;16.37;;;12.43;;
10651;SDS011;5374;42.742;23.266;2023-02-01T17:13:14;28.87;;;14.07;;
10651;SDS011;5374;42.742;23.266;2023-02-01T17:16:03;27.67;;;14.43;;
10651;SDS011;5374;42.742;23.266;2023-02-01T17:18:56;26.83;;;14.43;;
10651;SDS011;5374;42.742;23.266;2023-02-01T17:21:46;14.50;;;9.10;;
10651;SDS011;5374;42.742;23.266;2023-02-01T17:24:37;15.63;;;8.60;;
10651;SDS011;5374;42.742;23.266;2023-02-01T17:27:24;13.97;;;9.00;;